Clack, Mississippi
Current Conditions -  °F | °C
As of 3:55 AM on Sunday 23 Nov 2014 (Local Time) from KUTA Reporting Station
Broken Clouds Broken Clouds  
Wind Chill: 59°   Ceiling: 2000
Heat Index: 59°   Visibility: 10mi
Dew Point: 54°   Wind: 10mph
Humidity: 82%   Direction: 120°ESE
Pressure: 29.79"   Gusts: NA
Location:  34.8092°N, 90.3159°W
Report Text: KUTA 230955Z AUTO 12009KT 10SM BKN020 BKN028 15/12 A2979 RMK AO2
Loading
Personal Weather Stations






























Interactive Weather Map New forecast layout! Learn more

10-Day Weather Forecast

Advertisements
Track Severe Weather on mobile